WXM80 ListenWXM80 Stop

You find our weather info also at:

UK Metoffice

WeatherCloud

Weather Underground

Northeastern Weather Network

AWEKAS

Citizen Weather Observer Program (CWOP)

HAMweather, WeatherForYou, PWS Weather


Weather Underground History page Text

Daily Summary for September 29, 2017 Units:  English    Metric   Both
« Previous Day
Next Day »
Daily Weekly Monthly Yearly Custom
  High: Low: Average:
Temperature: 72.5 °F 54.3 °F 61.8 °F
Dew Point: 52.6 °F 45.6 °F 48.9 °F
Humidity: 86 % 45 % 64 %
Wind Speed: 10.3 mph 0.0 mph 2.5 mph
Wind Gust: 17.3 mph - -
Wind:- - South
Pressure: 29.94 in 29.84 in -
Precipitation: 0.00 in    
Historical Graphs
 
 
Tabular Data for September 29, 2017
Time Temperature Dew Point Pressure Wind Wind Speed Wind Gust Humidity Rainfall Rate (Hourly)
00:03 62.2 °F 49.0 °F 29.84 in North 2.7 mph 10.4 mph 62 % 0.00 in
00:09 62.1 °F 48.9 °F 29.84 in NE 7.6 mph 12.7 mph 62 % 0.00 in
00:14 61.9 °F 48.7 °F 29.84 in North 7.5 mph 11.5 mph 62 % 0.00 in
00:19 61.8 °F 48.6 °F 29.84 in NW 6.8 mph 11.5 mph 62 % 0.00 in
00:24 61.7 °F 48.5 °F 29.84 in NNE 6.6 mph 13.8 mph 62 % 0.00 in
00:29 61.6 °F 48.4 °F 29.84 in NNE 6.7 mph 12.7 mph 62 % 0.00 in
00:34 61.5 °F 48.8 °F 29.84 in NNW 6.1 mph 12.7 mph 63 % 0.00 in
00:39 61.4 °F 48.7 °F 29.85 in NNE 5.5 mph 11.5 mph 63 % 0.00 in
00:44 61.3 °F 48.2 °F 29.84 in NNW 7.2 mph 13.8 mph 62 % 0.00 in
00:49 61.2 °F 48.5 °F 29.85 in NNE 4.4 mph 9.2 mph 63 % 0.00 in
00:54 61.1 °F 48.0 °F 29.85 in NNE 10.3 mph 17.3 mph 62 % 0.00 in
00:59 60.9 °F 48.6 °F 29.85 in North 6.3 mph 12.7 mph 64 % 0.00 in
01:04 60.9 °F 48.2 °F 29.85 in NNE 6.2 mph 10.4 mph 63 % 0.00 in
01:09 60.8 °F 49.0 °F 29.85 in NE 4.5 mph 10.0 mph 65 % 0.00 in
01:14 60.7 °F 48.4 °F 29.85 in North 7.5 mph 11.5 mph 64 % 0.00 in
01:19 60.6 °F 47.9 °F 29.85 in NNE 4.7 mph 8.1 mph 63 % 0.00 in
01:24 60.5 °F 48.7 °F 29.86 in NNE 6.0 mph 10.4 mph 65 % 0.00 in
01:29 60.4 °F 48.2 °F 29.85 in NNE 6.9 mph 13.8 mph 64 % 0.00 in
01:34 60.3 °F 48.1 °F 29.85 in NNE 5.9 mph 11.5 mph 64 % 0.00 in
01:39 60.3 °F 48.1 °F 29.86 in North 8.2 mph 10.4 mph 64 % 0.00 in
01:44 60.2 °F 48.4 °F 29.85 in North 7.6 mph 10.4 mph 65 % 0.00 in
01:49 60.1 °F 48.7 °F 29.86 in NNW 5.2 mph 9.2 mph 66 % 0.00 in
01:54 60.0 °F 48.2 °F 29.86 in NE 3.2 mph 9.2 mph 65 % 0.00 in
01:59 60.0 °F 47.8 °F 29.86 in NNE 7.3 mph 9.2 mph 64 % 0.00 in
02:04 59.9 °F 47.3 °F 29.86 in NNE 4.3 mph 10.4 mph 63 % 0.00 in
02:09 59.8 °F 47.6 °F 29.86 in North 6.7 mph 11.5 mph 64 % 0.00 in
02:14 59.7 °F 47.5 °F 29.86 in NE 6.6 mph 10.4 mph 64 % 0.00 in
02:19 59.7 °F 47.9 °F 29.86 in NNE 3.7 mph 10.4 mph 65 % 0.00 in
02:24 59.6 °F 48.2 °F 29.86 in NNE 6.0 mph 6.9 mph 66 % 0.00 in
02:29 59.6 °F 47.8 °F 29.86 in NE 5.9 mph 10.0 mph 65 % 0.00 in
02:34 59.5 °F 47.7 °F 29.86 in NNE 3.1 mph 4.0 mph 65 % 0.00 in
02:40 59.4 °F 47.6 °F 29.86 in NNE 6.4 mph 8.1 mph 65 % 0.00 in
02:44 59.3 °F 47.1 °F 29.86 in NNW 4.0 mph 8.0 mph 64 % 0.00 in
02:49 59.3 °F 47.5 °F 29.86 in NNE 3.8 mph 6.9 mph 65 % 0.00 in
02:54 59.2 °F 47.4 °F 29.86 in NNE 6.1 mph 11.5 mph 65 % 0.00 in
02:59 59.1 °F 47.3 °F 29.86 in NE 6.5 mph 11.5 mph 65 % 0.00 in
03:04 59.1 °F 48.1 °F 29.86 in North 4.9 mph 6.9 mph 67 % 0.00 in
03:09 59.0 °F 47.7 °F 29.86 in NNE 3.7 mph 8.1 mph 66 % 0.00 in
03:15 58.9 °F 47.2 °F 29.86 in North 4.5 mph 9.2 mph 65 % 0.00 in
03:19 58.9 °F 47.2 °F 29.86 in NE 5.7 mph 8.1 mph 65 % 0.00 in
03:24 58.8 °F 47.5 °F 29.86 in North 8.7 mph 10.4 mph 66 % 0.00 in
03:30 58.7 °F 47.0 °F 29.86 in North 5.6 mph 11.5 mph 65 % 0.00 in
03:35 58.7 °F 47.4 °F 29.87 in NNE 5.5 mph 6.9 mph 66 % 0.00 in
03:40 58.7 °F 47.4 °F 29.86 in NNE 5.0 mph 7.0 mph 66 % 0.00 in
03:45 58.6 °F 47.3 °F 29.87 in North 3.8 mph 5.8 mph 66 % 0.00 in
03:50 58.5 °F 47.2 °F 29.87 in NNE 4.6 mph 8.1 mph 66 % 0.00 in
03:55 58.5 °F 47.6 °F 29.87 in North 2.6 mph 4.6 mph 67 % 0.00 in
04:00 58.4 °F 47.5 °F 29.87 in NNW 2.4 mph 6.9 mph 67 % 0.00 in
04:05 58.3 °F 47.0 °F 29.87 in North 3.2 mph 4.6 mph 66 % 0.00 in
04:10 58.2 °F 47.3 °F 29.88 in North 2.9 mph 6.9 mph 67 % 0.00 in
04:15 58.2 °F 46.9 °F 29.88 in North 2.8 mph 6.9 mph 66 % 0.00 in
04:20 58.1 °F 47.2 °F 29.88 in NNE 5.8 mph 9.2 mph 67 % 0.00 in
04:25 58.1 °F 47.2 °F 29.88 in NE 5.7 mph 9.2 mph 67 % 0.00 in
04:30 58.0 °F 47.1 °F 29.88 in North 4.1 mph 8.1 mph 67 % 0.00 in
04:36 57.9 °F 47.4 °F 29.88 in North 2.2 mph 5.8 mph 68 % 0.00 in
04:41 57.8 °F 46.9 °F 29.88 in North 3.8 mph 6.0 mph 67 % 0.00 in
04:46 57.7 °F 46.8 °F 29.88 in North 2.0 mph 8.0 mph 67 % 0.00 in
04:51 57.6 °F 46.7 °F 29.88 in NNE 1.0 mph 10.0 mph 67 % 0.00 in
04:56 57.5 °F 47.0 °F 29.88 in NNE 6.0 mph 12.0 mph 68 % 0.00 in
05:01 57.4 °F 46.5 °F 29.88 in NNW 2.9 mph 5.0 mph 67 % 0.00 in
05:06 57.4 °F 46.5 °F 29.88 in North 4.3 mph 6.9 mph 67 % 0.00 in
05:11 57.3 °F 46.8 °F 29.88 in NNE 3.0 mph 5.0 mph 68 % 0.00 in
05:16 57.2 °F 46.7 °F 29.88 in North 3.6 mph 7.0 mph 68 % 0.00 in
05:21 57.1 °F 46.6 °F 29.88 in North 3.2 mph 5.0 mph 68 % 0.00 in
05:26 57.0 °F 46.5 °F 29.88 in NNE 4.8 mph 10.4 mph 68 % 0.00 in
05:31 56.9 °F 46.4 °F 29.88 in NNE 3.8 mph 5.8 mph 68 % 0.00 in
05:36 56.9 °F 46.8 °F 29.88 in NNE 4.1 mph 6.9 mph 69 % 0.00 in
05:41 56.8 °F 46.7 °F 29.89 in NNE 4.3 mph 6.0 mph 69 % 0.00 in
05:46 56.8 °F 46.7 °F 29.89 in North 5.5 mph 9.0 mph 69 % 0.00 in
05:51 56.7 °F 46.3 °F 29.89 in NE 3.0 mph 8.1 mph 68 % 0.00 in
05:56 56.6 °F 46.2 °F 29.89 in North 5.8 mph 10.4 mph 68 % 0.00 in
06:01 56.6 °F 45.8 °F 29.89 in NNW 5.4 mph 11.5 mph 67 % 0.00 in
06:06 56.7 °F 46.3 °F 29.89 in NNE 3.9 mph 9.2 mph 68 % 0.00 in
06:11 56.6 °F 46.5 °F 29.90 in NNW 4.3 mph 7.0 mph 69 % 0.00 in
06:16 56.6 °F 46.5 °F 29.90 in NNE 4.2 mph 6.9 mph 69 % 0.00 in
06:21 56.6 °F 46.2 °F 29.90 in North 3.6 mph 6.9 mph 68 % 0.00 in
06:26 56.6 °F 45.8 °F 29.90 in North 2.2 mph 5.8 mph 67 % 0.00 in
06:31 56.6 °F 45.8 °F 29.90 in NNE 3.0 mph 6.9 mph 67 % 0.00 in
06:36 56.6 °F 46.2 °F 29.90 in NNE 2.1 mph 4.6 mph 68 % 0.00 in
06:41 56.5 °F 45.7 °F 29.90 in ENE 3.7 mph 6.9 mph 67 % 0.00 in
06:46 56.4 °F 45.6 °F 29.90 in North 5.6 mph 6.9 mph 67 % 0.00 in
06:51 56.5 °F 45.7 °F 29.90 in North 4.5 mph 7.0 mph 67 % 0.00 in
06:56 56.5 °F 45.7 °F 29.90 in NNE 3.3 mph 8.1 mph 67 % 0.00 in
07:01 56.5 °F 46.1 °F 29.90 in North 4.3 mph 6.0 mph 68 % 0.00 in
07:06 56.6 °F 45.8 °F 29.90 in NNE 3.9 mph 5.8 mph 67 % 0.00 in
07:11 56.7 °F 45.9 °F 29.91 in NNE 2.8 mph 9.2 mph 67 % 0.00 in
07:17 56.8 °F 46.3 °F 29.91 in NNE 3.8 mph 6.9 mph 68 % 0.00 in
07:22 56.9 °F 46.4 °F 29.92 in NNE 3.0 mph 4.6 mph 68 % 0.00 in
07:27 56.9 °F 46.4 °F 29.91 in NNE 3.7 mph 5.8 mph 68 % 0.00 in
07:32 57.0 °F 46.5 °F 29.92 in North 2.4 mph 6.9 mph 68 % 0.00 in
07:37 57.0 °F 46.5 °F 29.92 in North 2.8 mph 5.8 mph 68 % 0.00 in
07:42 57.1 °F 46.6 °F 29.92 in North 4.7 mph 9.0 mph 68 % 0.00 in
07:47 57.2 °F 46.7 °F 29.92 in NNE 3.1 mph 5.8 mph 68 % 0.00 in
07:52 57.2 °F 46.7 °F 29.92 in North 0.3 mph 2.3 mph 68 % 0.00 in
07:57 57.3 °F 46.4 °F 29.92 in NNE 3.9 mph 6.9 mph 67 % 0.00 in
08:02 57.3 °F 46.0 °F 29.92 in North 3.9 mph 9.2 mph 66 % 0.00 in
08:07 57.4 °F 46.9 °F 29.92 in North 4.1 mph 8.1 mph 68 % 0.00 in
08:12 57.5 °F 47.0 °F 29.92 in NNE 3.2 mph 4.6 mph 68 % 0.00 in
08:17 57.7 °F 46.8 °F 29.92 in NNE 3.0 mph 4.0 mph 67 % 0.00 in
08:22 57.8 °F 46.9 °F 29.93 in ENE 2.8 mph 7.0 mph 67 % 0.00 in
08:27 57.9 °F 46.6 °F 29.92 in NE 2.1 mph 3.5 mph 66 % 0.00 in
08:32 58.1 °F 47.6 °F 29.93 in NNE 2.2 mph 4.6 mph 68 % 0.00 in
08:37 58.2 °F 47.7 °F 29.93 in NNW 1.4 mph 3.5 mph 68 % 0.00 in
08:42 58.3 °F 47.0 °F 29.93 in North 2.4 mph 5.0 mph 66 % 0.00 in
08:47 58.4 °F 46.7 °F 29.93 in NNE 2.2 mph 5.0 mph 65 % 0.00 in
08:52 58.4 °F 47.1 °F 29.93 in North 0.2 mph 1.2 mph 66 % 0.00 in
08:57 58.5 °F 46.8 °F 29.94 in NNE 3.8 mph 5.0 mph 65 % 0.00 in
09:02 58.5 °F 47.2 °F 29.94 in NNW 0.8 mph 3.5 mph 66 % 0.00 in
09:07 58.5 °F 46.8 °F 29.94 in NNE 4.6 mph 7.0 mph 65 % 0.00 in
09:13 58.6 °F 46.9 °F 29.94 in NNW 2.1 mph 5.8 mph 65 % 0.00 in
09:18 58.6 °F 46.5 °F 29.94 in NNE 3.2 mph 4.6 mph 64 % 0.00 in
09:23 58.7 °F 46.5 °F 29.94 in NE 3.6 mph 4.6 mph 64 % 0.00 in
09:28 58.7 °F 46.1 °F 29.94 in NNE 3.1 mph 9.2 mph 63 % 0.00 in
09:33 58.8 °F 46.2 °F 29.94 in North 4.0 mph 5.8 mph 63 % 0.00 in
09:38 58.9 °F 46.3 °F 29.94 in NW 1.7 mph 4.0 mph 63 % 0.00 in
09:43 58.9 °F 46.3 °F 29.94 in NE 2.0 mph 3.5 mph 63 % 0.00 in
09:48 59.0 °F 46.4 °F 29.94 in NNW 4.2 mph 6.9 mph 63 % 0.00 in
09:53 59.1 °F 46.1 °F 29.94 in Calm   1.2 mph 62 % 0.00 in
09:55 59.1 °F 46.9 °F 29.94 in North 4.1 mph 4.6 mph 64 % 0.00 in
10:00 59.2 °F 46.2 °F 29.94 in North 1.5 mph 4.6 mph 62 % 0.00 in
10:05 59.3 °F 45.8 °F 29.94 in NNE 2.6 mph 3.5 mph 61 % 0.00 in
10:10 59.4 °F 45.9 °F 29.94 in NNE 3.1 mph 5.8 mph 61 % 0.00 in
10:15 59.7 °F 46.7 °F 29.94 in NNE 3.9 mph 5.8 mph 62 % 0.00 in
10:20 60.3 °F 47.6 °F 29.94 in WNW 1.2 mph 3.5 mph 63 % 0.00 in
10:25 60.5 °F 46.1 °F 29.94 in North 2.2 mph 7.0 mph 59 % 0.00 in
10:31 60.8 °F 46.8 °F 29.94 in North 1.0 mph 6.0 mph 60 % 0.00 in
10:36 60.9 °F 46.5 °F 29.94 in NNE 2.0 mph 7.0 mph 59 % 0.00 in
10:41 61.0 °F 46.6 °F 29.94 in North 3.0 mph 6.0 mph 59 % 0.00 in
10:46 61.0 °F 46.1 °F 29.94 in North 2.0 mph 7.0 mph 58 % 0.00 in
10:51 61.0 °F 46.6 °F 29.94 in NNE 1.0 mph 5.0 mph 59 % 0.00 in
10:56 61.1 °F 47.1 °F 29.94 in North 1.0 mph 9.0 mph 60 % 0.00 in
11:01 61.3 °F 47.7 °F 29.94 in NNE 2.4 mph 4.0 mph 61 % 0.00 in
11:06 61.7 °F 47.7 °F 29.94 in NNE 4.8 mph 6.9 mph 60 % 0.00 in
11:11 62.3 °F 48.7 °F 29.94 in North 2.2 mph 3.5 mph 61 % 0.00 in
11:16 62.9 °F 48.3 °F 29.94 in NNE 4.0 mph 4.6 mph 59 % 0.00 in
11:21 64.1 °F 49.9 °F 29.94 in North 1.0 mph 6.0 mph 60 % 0.00 in
11:26 65.3 °F 50.6 °F 29.94 in North 1.1 mph 3.5 mph 59 % 0.00 in
11:31 66.1 °F 49.5 °F 29.93 in WNW 2.3 mph 3.5 mph 55 % 0.00 in
11:36 67.0 °F 49.8 °F 29.93 in North 3.7 mph 4.6 mph 54 % 0.00 in
11:41 67.9 °F 50.1 °F 29.93 in North 0.7 mph 3.5 mph 53 % 0.00 in
11:46 68.5 °F 51.2 °F 29.93 in North 2.3 mph 5.0 mph 54 % 0.00 in
11:51 68.9 °F 48.9 °F 29.92 in WNW 4.0 mph 4.0 mph 49 % 0.00 in
11:56 69.1 °F 50.7 °F 29.93 in NNE 2.0 mph 3.5 mph 52 % 0.00 in
12:01 69.7 °F 51.8 °F 29.92 in WNW 1.7 mph 3.5 mph 53 % 0.00 in
12:06 70.1 °F 50.6 °F 29.92 in NNE 3.0 mph 4.6 mph 50 % 0.00 in
12:12 70.4 °F 50.9 °F 29.92 in SSW 1.5 mph 4.6 mph 50 % 0.00 in
12:17 70.7 °F 49.5 °F 29.92 in WNW 2.1 mph 4.0 mph 47 % 0.00 in
12:22 71.1 °F 49.8 °F 29.92 in NNE 1.7 mph 4.6 mph 47 % 0.00 in
12:27 71.3 °F 50.0 °F 29.92 in WNW 3.8 mph 5.8 mph 47 % 0.00 in
12:32 71.5 °F 51.9 °F 29.92 in NW 2.6 mph 6.0 mph 50 % 0.00 in
12:37 71.4 °F 49.5 °F 29.92 in West 2.5 mph 4.6 mph 46 % 0.00 in
12:42 71.4 °F 51.8 °F 29.92 in West 1.0 mph 2.3 mph 50 % 0.00 in
12:47 71.7 °F 52.6 °F 29.92 in West 1.1 mph 3.5 mph 51 % 0.00 in
12:52 71.6 °F 51.4 °F 29.92 in NW 1.4 mph 3.5 mph 49 % 0.00 in
12:57 71.8 °F 50.5 °F 29.92 in WSW 3.1 mph 3.5 mph 47 % 0.00 in
13:02 72.1 °F 50.8 °F 29.92 in WNW 0.9 mph 3.0 mph 47 % 0.00 in
13:05 72.2 °F 50.3 °F 29.92 in WNW 1.9 mph 2.3 mph 46 % 0.00 in
13:10 72.3 °F 50.9 °F 29.92 in West 1.5 mph 4.0 mph 47 % 0.00 in
13:13 72.3 °F 50.4 °F 29.92 in NW 3.7 mph 4.6 mph 46 % 0.00 in
13:18 72.2 °F 51.4 °F 29.91 in Calm   1.2 mph 48 % 0.00 in
13:23 72.1 °F 50.8 °F 29.91 in WNW 2.7 mph 6.9 mph 47 % 0.00 in
13:28 72.1 °F 50.8 °F 29.91 in NW 4.0 mph 6.9 mph 47 % 0.00 in
13:29 72.1 °F 51.3 °F 29.91 in NW 4.8 mph 9.0 mph 48 % 0.00 in
13:34 72.1 °F 51.9 °F 29.90 in WSW 1.7 mph 3.5 mph 49 % 0.00 in
13:39 72.1 °F 50.8 °F 29.90 in NW 1.5 mph 3.5 mph 47 % 0.00 in
13:44 72.1 °F 50.2 °F 29.90 in WNW 0.2 mph 1.2 mph 46 % 0.00 in
13:46 72.1 °F 51.9 °F 29.90 in WSW 2.8 mph 3.5 mph 49 % 0.00 in
13:51 72.2 °F 50.8 °F 29.90 in West 2.6 mph 8.1 mph 47 % 0.00 in
13:56 72.5 °F 51.7 °F 29.90 in WNW 1.9 mph 5.0 mph 48 % 0.00 in
14:01 72.5 °F 50.5 °F 29.89 in WSW 1.5 mph 7.0 mph 46 % 0.00 in
14:06 72.5 °F 49.9 °F 29.89 in SSW 4.1 mph 6.9 mph 45 % 0.00 in
14:11 72.5 °F 50.5 °F 29.89 in West 4.8 mph 9.0 mph 46 % 0.00 in
14:16 72.4 °F 50.4 °F 29.89 in West 2.0 mph 8.1 mph 46 % 0.00 in
14:21 72.3 °F 50.9 °F 29.89 in West 2.8 mph 5.8 mph 47 % 0.00 in
14:26 72.2 °F 49.7 °F 29.89 in WSW 4.4 mph 6.9 mph 45 % 0.00 in
14:32 72.1 °F 50.8 °F 29.89 in NW 0.9 mph 2.0 mph 47 % 0.00 in
14:37 72.0 °F 50.7 °F 29.89 in West 1.5 mph 4.6 mph 47 % 0.00 in
14:42 71.9 °F 50.0 °F 29.89 in West 1.0 mph 2.0 mph 46 % 0.00 in
14:47 72.0 °F 50.1 °F 29.89 in WSW 1.2 mph 3.5 mph 46 % 0.00 in
14:52 72.1 °F 51.3 °F 29.89 in West 2.2 mph 4.6 mph 48 % 0.00 in
14:57 72.0 °F 49.5 °F 29.89 in WSW 3.2 mph 6.9 mph 45 % 0.00 in
15:02 72.0 °F 50.7 °F 29.88 in WNW 1.0 mph 4.6 mph 47 % 0.00 in
15:07 72.0 °F 51.2 °F 29.88 in NNW 2.2 mph 5.8 mph 48 % 0.00 in
15:12 71.9 °F 50.6 °F 29.88 in NW 1.2 mph 3.5 mph 47 % 0.00 in
15:17 71.8 °F 51.0 °F 29.88 in West 2.5 mph 4.6 mph 48 % 0.00 in
15:22 71.7 °F 49.8 °F 29.88 in West 2.2 mph 4.6 mph 46 % 0.00 in
15:27 71.5 °F 50.2 °F 29.88 in NW 1.9 mph 3.5 mph 47 % 0.00 in
15:32 71.3 °F 48.9 °F 29.87 in NW 3.2 mph 6.9 mph 45 % 0.00 in
15:37 70.9 °F 49.7 °F 29.87 in NNW 1.5 mph 6.0 mph 47 % 0.00 in
15:38 70.9 °F 49.7 °F 29.87 in WNW 2.8 mph 5.8 mph 47 % 0.00 in
15:43 70.5 °F 49.9 °F 29.87 in NNW 3.2 mph 7.0 mph 48 % 0.00 in
15:48 70.3 °F 51.3 °F 29.87 in WNW 1.0 mph 5.8 mph 51 % 0.00 in
15:53 70.1 °F 50.0 °F 29.87 in WNW 4.2 mph 8.1 mph 49 % 0.00 in
15:58 69.9 °F 49.3 °F 29.87 in WNW 2.0 mph 5.8 mph 48 % 0.00 in
16:03 69.5 °F 49.5 °F 29.87 in WNW 3.2 mph 6.9 mph 49 % 0.00 in
16:08 69.1 °F 50.2 °F 29.87 in WNW 0.2 mph 3.5 mph 51 % 0.00 in
16:13 68.9 °F 49.5 °F 29.88 in West 1.7 mph 4.0 mph 50 % 0.00 in
16:18 68.6 °F 50.3 °F 29.88 in NNW 1.2 mph 3.5 mph 52 % 0.00 in
16:23 68.4 °F 50.6 °F 29.87 in North 2.2 mph 4.6 mph 53 % 0.00 in
16:28 68.0 °F 49.7 °F 29.87 in West 1.0 mph 3.5 mph 52 % 0.00 in
16:33 67.8 °F 50.5 °F 29.87 in NNW 1.2 mph 5.0 mph 54 % 0.00 in
16:38 67.6 °F 49.9 °F 29.87 in NW 1.6 mph 4.6 mph 53 % 0.00 in
16:43 67.4 °F 49.7 °F 29.88 in WNW 2.3 mph 3.5 mph 53 % 0.00 in
16:48 67.2 °F 50.5 °F 29.88 in WNW 0.7 mph 2.0 mph 55 % 0.00 in
16:53 67.0 °F 49.8 °F 29.87 in West 4.2 mph 9.2 mph 54 % 0.00 in
16:58 66.8 °F 49.1 °F 29.87 in WNW 1.3 mph 3.5 mph 53 % 0.00 in
17:03 66.7 °F 49.5 °F 29.87 in WNW 1.6 mph 5.0 mph 54 % 0.00 in
17:08 66.5 °F 49.3 °F 29.87 in WNW 1.5 mph 3.5 mph 54 % 0.00 in
17:13 66.3 °F 49.6 °F 29.88 in Calm   1.2 mph 55 % 0.00 in
17:18 66.1 °F 49.9 °F 29.88 in NNW 0.4 mph 3.5 mph 56 % 0.00 in
17:23 65.9 °F 50.2 °F 29.88 in West 0.9 mph 7.0 mph 57 % 0.00 in
17:29 65.8 °F 50.1 °F 29.88 in NW 1.0 mph 2.3 mph 57 % 0.00 in
17:34 65.7 °F 50.5 °F 29.88 in North 0.8 mph 2.3 mph 58 % 0.00 in
17:39 65.5 °F 49.9 °F 29.88 in NW 0.7 mph 3.5 mph 57 % 0.00 in
17:44 65.4 °F 49.8 °F 29.88 in WSW 1.0 mph 3.5 mph 57 % 0.00 in
17:49 65.3 °F 50.1 °F 29.88 in West 0.9 mph 2.3 mph 58 % 0.00 in
17:54 65.2 °F 50.0 °F 29.88 in Calm     58 % 0.00 in
17:59 65.0 °F 49.9 °F 29.88 in West 0.9 mph 3.5 mph 58 % 0.00 in
18:04 64.9 °F 49.8 °F 29.89 in Calm   2.3 mph 58 % 0.00 in
18:09 64.8 °F 50.1 °F 29.89 in West 0.9 mph 1.2 mph 59 % 0.00 in
18:14 64.7 °F 50.0 °F 29.89 in Calm     59 % 0.00 in
18:19 64.6 °F 50.4 °F 29.89 in West 0.1 mph 1.0 mph 60 % 0.00 in
18:24 64.4 °F 50.2 °F 29.89 in West 0.2 mph 1.2 mph 60 % 0.00 in
18:29 64.3 °F 50.1 °F 29.89 in Calm     60 % 0.00 in
18:34 64.1 °F 50.4 °F 29.89 in Calm     61 % 0.00 in
18:40 63.9 °F 50.6 °F 29.89 in Calm     62 % 0.00 in
18:45 63.7 °F 50.4 °F 29.89 in Calm     62 % 0.00 in
18:50 63.4 °F 50.1 °F 29.89 in Calm   1.2 mph 62 % 0.00 in
18:55 63.2 °F 50.4 °F 29.89 in Calm     63 % 0.00 in
19:00 62.9 °F 51.0 °F 29.89 in Calm     65 % 0.00 in
19:05 62.7 °F 51.2 °F 29.90 in West 0.6 mph 2.3 mph 66 % 0.00 in
19:10 62.4 °F 50.9 °F 29.89 in West 0.1 mph 1.2 mph 66 % 0.00 in
19:15 62.2 °F 51.1 °F 29.89 in Calm     67 % 0.00 in
19:20 61.8 °F 51.1 °F 29.89 in Calm     68 % 0.00 in
19:25 61.5 °F 51.2 °F 29.89 in Calm     69 % 0.00 in
19:30 61.2 °F 50.9 °F 29.90 in West 0.8 mph 2.3 mph 69 % 0.00 in
19:35 60.9 °F 50.7 °F 29.89 in Calm   1.2 mph 69 % 0.00 in
19:40 60.5 °F 50.7 °F 29.90 in Calm     70 % 0.00 in
19:45 60.2 °F 50.4 °F 29.90 in Calm     70 % 0.00 in
19:50 59.9 °F 50.5 °F 29.90 in Calm     71 % 0.00 in
19:55 59.6 °F 50.6 °F 29.90 in Calm     72 % 0.00 in
20:00 59.4 °F 50.4 °F 29.90 in Calm   1.2 mph 72 % 0.00 in
20:05 59.1 °F 50.1 °F 29.90 in Calm     72 % 0.00 in
20:10 58.9 °F 50.3 °F 29.91 in Calm     73 % 0.00 in
20:15 58.7 °F 50.4 °F 29.90 in Calm     74 % 0.00 in
20:20 58.4 °F 50.1 °F 29.91 in Calm     74 % 0.00 in
20:25 58.2 °F 50.3 °F 29.91 in Calm     75 % 0.00 in
20:30 58.0 °F 50.1 °F 29.91 in Calm     75 % 0.00 in
20:36 57.9 °F 50.4 °F 29.91 in Calm     76 % 0.00 in
20:41 57.7 °F 50.5 °F 29.91 in Calm     77 % 0.00 in
20:46 57.6 °F 50.8 °F 29.91 in Calm     78 % 0.00 in
20:50 57.4 °F 50.9 °F 29.91 in Calm     79 % 0.00 in
20:52 57.3 °F 50.8 °F 29.91 in Calm     79 % 0.00 in
20:57 57.2 °F 50.7 °F 29.91 in West 0.1 mph 1.2 mph 79 % 0.00 in
21:02 57.1 °F 50.6 °F 29.91 in West 0.1 mph 1.2 mph 79 % 0.00 in
21:07 56.9 °F 50.8 °F 29.91 in West 0.2 mph 1.2 mph 80 % 0.00 in
21:12 56.8 °F 51.0 °F 29.91 in West 0.2 mph 1.2 mph 81 % 0.00 in
21:17 56.7 °F 50.9 °F 29.91 in Calm     81 % 0.00 in
21:22 56.6 °F 50.8 °F 29.91 in West 0.2 mph 1.2 mph 81 % 0.00 in
21:27 56.5 °F 50.7 °F 29.91 in West 0.4 mph 1.2 mph 81 % 0.00 in
21:32 56.4 °F 50.6 °F 29.91 in Calm     81 % 0.00 in
21:37 56.3 °F 50.5 °F 29.91 in Calm     81 % 0.00 in
21:42 56.2 °F 50.4 °F 29.91 in Calm     81 % 0.00 in
21:48 56.1 °F 50.3 °F 29.91 in Calm     81 % 0.00 in
21:53 56.0 °F 50.3 °F 29.90 in Calm     81 % 0.00 in
21:58 55.9 °F 50.5 °F 29.91 in Calm     82 % 0.00 in
22:03 55.8 °F 50.4 °F 29.91 in Calm     82 % 0.00 in
22:08 55.7 °F 50.3 °F 29.91 in Calm     82 % 0.00 in
22:13 55.6 °F 50.2 °F 29.91 in Calm     82 % 0.00 in
22:18 55.5 °F 50.1 °F 29.91 in Calm     82 % 0.00 in
22:23 55.4 °F 50.0 °F 29.91 in Calm     82 % 0.00 in
22:28 55.3 °F 49.9 °F 29.91 in Calm     82 % 0.00 in
22:33 55.2 °F 50.1 °F 29.91 in Calm     83 % 0.00 in
22:38 55.1 °F 50.4 °F 29.92 in Calm     84 % 0.00 in
22:43 54.9 °F 50.2 °F 29.92 in Calm     84 % 0.00 in
22:48 54.9 °F 50.2 °F 29.91 in Calm     84 % 0.00 in
22:53 54.8 °F 50.1 °F 29.91 in Calm     84 % 0.00 in
22:58 54.7 °F 50.0 °F 29.92 in Calm     84 % 0.00 in
23:03 54.6 °F 49.9 °F 29.91 in Calm     84 % 0.00 in
23:08 54.6 °F 49.9 °F 29.91 in Calm     84 % 0.00 in
23:14 54.5 °F 49.8 °F 29.91 in Calm     84 % 0.00 in
23:19 54.5 °F 50.1 °F 29.91 in Calm     85 % 0.00 in
23:24 54.4 °F 50.0 °F 29.91 in Calm     85 % 0.00 in
23:29 54.4 °F 50.0 °F 29.91 in Calm     85 % 0.00 in
23:34 54.3 °F 50.2 °F 29.91 in Calm     86 % 0.00 in
23:39 54.3 °F 50.2 °F 29.91 in Calm     86 % 0.00 in
23:44 54.3 °F 50.2 °F 29.91 in Calm     86 % 0.00 in
23:49 54.3 °F 50.2 °F 29.91 in Calm     86 % 0.00 in
23:54 54.3 °F 50.2 °F 29.91 in Calm     86 % 0.00 in
23:59 54.3 °F 50.2 °F 29.90 in Calm     86 % 0.00 in
Crab Meadow Weather
Compliments of Weather Underground - 3 mb

Script developed by  Jim McMurry - jmcmurry@mwt.net Adapted for the template by  Wim van der Kuil - Leuven-Template.eu

Recycling: In 2006, a record 53.4 percent of the paper consumed in the U.S. was recovered for recycling. Americans recovered an extraordinary 53.5 million tons, averaging 360 pounds per person.